sensor_id;sensor_type;location;lat;lon;timestamp;temperature;humidity
69418;DHT22;56610;48.872;2.400;2023-03-31T00:00:32;15.30;99.90
69418;DHT22;56610;48.872;2.400;2023-03-31T00:02:57;15.50;99.90
69418;DHT22;56610;48.872;2.400;2023-03-31T00:05:26;15.70;99.90
69418;DHT22;56610;48.872;2.400;2023-03-31T00:07:56;15.90;99.90
69418;DHT22;56610;48.872;2.400;2023-03-31T00:10:32;15.90;99.90
69418;DHT22;56610;48.872;2.400;2023-03-31T00:13:01;15.80;99.90
69418;DHT22;56610;48.872;2.400;2023-03-31T00:15:28;15.70;99.90
69418;DHT22;56610;48.872;2.400;2023-03-31T00:17:53;15.80;99.90
69418;DHT22;56610;48.872;2.400;2023-03-31T00:20:19;15.60;99.90
69418;DHT22;56610;48.872;2.400;2023-03-31T00:22:45;15.30;99.90
69418;DHT22;56610;48.872;2.400;2023-03-31T00:25:15;15.00;99.90
69418;DHT22;56610;48.872;2.400;2023-03-31T00:27:42;14.90;99.90
69418;DHT22;56610;48.872;2.400;2023-03-31T00:30:09;15.10;99.90
69418;DHT22;56610;48.872;2.400;2023-03-31T00:54:37;14.80;99.90
69418;DHT22;56610;48.872;2.400;2023-03-31T00:57:06;14.70;99.90
69418;DHT22;56610;48.872;2.400;2023-03-31T00:59:38;14.60;99.90
69418;DHT22;56610;48.872;2.400;2023-03-31T01:02:05;14.40;99.90
69418;DHT22;56610;48.872;2.400;2023-03-31T01:04:34;14.20;99.90
69418;DHT22;56610;48.872;2.400;2023-03-31T01:07:06;14.20;99.90
69418;DHT22;56610;48.872;2.400;2023-03-31T01:09:34;14.20;99.90
69418;DHT22;56610;48.872;2.400;2023-03-31T01:12:02;14.20;99.90
69418;DHT22;56610;48.872;2.400;2023-03-31T01:14:30;14.30;99.90
69418;DHT22;56610;48.872;2.400;2023-03-31T01:16:56;14.30;99.90
69418;DHT22;56610;48.872;2.400;2023-03-31T01:19:49;14.30;99.90
69418;DHT22;56610;48.872;2.400;2023-03-31T01:25:35;14.30;99.90
69418;DHT22;56610;48.872;2.400;2023-03-31T01:28:03;14.30;99.90
69418;DHT22;56610;48.872;2.400;2023-03-31T01:39:41;14.70;99.90
69418;DHT22;56610;48.872;2.400;2023-03-31T01:47:44;14.80;99.90
69418;DHT22;56610;48.872;2.400;2023-03-31T01:50:21;14.70;99.90
69418;DHT22;56610;48.872;2.400;2023-03-31T01:53:00;14.60;99.90
69418;DHT22;56610;48.872;2.400;2023-03-31T01:58:20;14.50;99.90
69418;DHT22;56610;48.872;2.400;2023-03-31T02:00:54;14.50;99.90
69418;DHT22;56610;48.872;2.400;2023-03-31T02:03:23;14.50;99.90
69418;DHT22;56610;48.872;2.400;2023-03-31T02:05:54;14.50;99.90
69418;DHT22;56610;48.872;2.400;2023-03-31T02:08:24;14.70;99.90
69418;DHT22;56610;48.872;2.400;2023-03-31T02:10:52;14.60;99.90
69418;DHT22;56610;48.872;2.400;2023-03-31T02:13:20;14.60;99.90
69418;DHT22;56610;48.872;2.400;2023-03-31T02:15:51;14.80;99.90
69418;DHT22;56610;48.872;2.400;2023-03-31T02:18:20;15.10;99.90
69418;DHT22;56610;48.872;2.400;2023-03-31T02:20:52;15.10;99.90
69418;DHT22;56610;48.872;2.400;2023-03-31T02:23:21;15.00;99.90
69418;DHT22;56610;48.872;2.400;2023-03-31T02:25:50;15.00;99.90
69418;DHT22;56610;48.872;2.400;2023-03-31T02:28:21;14.80;99.90
69418;DHT22;56610;48.872;2.400;2023-03-31T02:31:21;14.70;99.90
69418;DHT22;56610;48.872;2.400;2023-03-31T02:33:48;14.60;99.90
69418;DHT22;56610;48.872;2.400;2023-03-31T02:36:14;14.50;99.90
69418;DHT22;56610;48.872;2.400;2023-03-31T02:38:49;14.50;99.90
69418;DHT22;56610;48.872;2.400;2023-03-31T02:41:16;14.40;99.90
69418;DHT22;56610;48.872;2.400;2023-03-31T02:43:42;14.40;99.90
69418;DHT22;56610;48.872;2.400;2023-03-31T02:46:07;14.40;99.90
69418;DHT22;56610;48.872;2.400;2023-03-31T02:48:36;14.30;99.90
69418;DHT22;56610;48.872;2.400;2023-03-31T02:53:42;14.40;99.90
69418;DHT22;56610;48.872;2.400;2023-03-31T02:56:34;14.70;99.90
69418;DHT22;56610;48.872;2.400;2023-03-31T03:05:18;14.90;99.90
69418;DHT22;56610;48.872;2.400;2023-03-31T03:10:29;14.80;99.90
69418;DHT22;56610;48.872;2.400;2023-03-31T03:16:09;14.60;99.90
69418;DHT22;56610;48.872;2.400;2023-03-31T03:18:38;14.50;99.90
69418;DHT22;56610;48.872;2.400;2023-03-31T03:21:04;14.40;99.90
69418;DHT22;56610;48.872;2.400;2023-03-31T03:23:29;14.40;99.90
69418;DHT22;56610;48.872;2.400;2023-03-31T03:25:55;14.50;99.90
69418;DHT22;56610;48.872;2.400;2023-03-31T03:28:22;14.50;99.90
69418;DHT22;56610;48.872;2.400;2023-03-31T03:30:47;14.40;99.90
69418;DHT22;56610;48.872;2.400;2023-03-31T03:33:13;14.40;99.90
69418;DHT22;56610;48.872;2.400;2023-03-31T03:35:41;14.60;99.90
69418;DHT22;56610;48.872;2.400;2023-03-31T03:38:07;14.80;99.90
69418;DHT22;56610;48.872;2.400;2023-03-31T03:40:32;14.80;99.90
69418;DHT22;56610;48.872;2.400;2023-03-31T03:42:58;14.90;99.90
69418;DHT22;56610;48.872;2.400;2023-03-31T03:45:23;14.80;99.90
69418;DHT22;56610;48.872;2.400;2023-03-31T03:47:49;14.80;99.90
69418;DHT22;56610;48.872;2.400;2023-03-31T03:50:15;14.60;99.90
69418;DHT22;56610;48.872;2.400;2023-03-31T03:52:41;14.50;99.90
69418;DHT22;56610;48.872;2.400;2023-03-31T03:55:06;14.50;99.90
69418;DHT22;56610;48.872;2.400;2023-03-31T03:57:32;14.40;99.90
69418;DHT22;56610;48.872;2.400;2023-03-31T03:59:58;14.40;99.90
69418;DHT22;56610;48.872;2.400;2023-03-31T04:02:23;14.40;99.90
69418;DHT22;56610;48.872;2.400;2023-03-31T04:04:49;14.50;99.90
69418;DHT22;56610;48.872;2.400;2023-03-31T04:07:15;14.60;99.90
69418;DHT22;56610;48.872;2.400;2023-03-31T04:09:40;14.50;99.90
69418;DHT22;56610;48.872;2.400;2023-03-31T04:12:06;14.60;99.90
69418;DHT22;56610;48.872;2.400;2023-03-31T04:14:31;14.70;99.90
69418;DHT22;56610;48.872;2.400;2023-03-31T04:16:57;14.80;99.90
69418;DHT22;56610;48.872;2.400;2023-03-31T04:19:23;14.80;99.90
69418;DHT22;56610;48.872;2.400;2023-03-31T04:21:52;14.90;99.90
69418;DHT22;56610;48.872;2.400;2023-03-31T04:24:24;15.00;99.90
69418;DHT22;56610;48.872;2.400;2023-03-31T04:26:55;15.00;99.90
69418;DHT22;56610;48.872;2.400;2023-03-31T04:29:21;14.90;99.90
69418;DHT22;56610;48.872;2.400;2023-03-31T04:31:54;14.80;99.90
69418;DHT22;56610;48.872;2.400;2023-03-31T04:34:26;14.70;99.90
69418;DHT22;56610;48.872;2.400;2023-03-31T04:36:59;14.60;99.90
69418;DHT22;56610;48.872;2.400;2023-03-31T04:39:27;14.50;99.90
69418;DHT22;56610;48.872;2.400;2023-03-31T04:41:55;14.50;99.90
69418;DHT22;56610;48.872;2.400;2023-03-31T04:44:22;14.50;99.90
69418;DHT22;56610;48.872;2.400;2023-03-31T04:46:47;14.40;99.90
69418;DHT22;56610;48.872;2.400;2023-03-31T04:49:13;14.40;99.90
69418;DHT22;56610;48.872;2.400;2023-03-31T04:51:39;14.50;99.90
69418;DHT22;56610;48.872;2.400;2023-03-31T04:54:04;14.50;99.90
69418;DHT22;56610;48.872;2.400;2023-03-31T04:56:30;14.50;99.90
69418;DHT22;56610;48.872;2.400;2023-03-31T04:58:55;14.60;99.90
69418;DHT22;56610;48.872;2.400;2023-03-31T05:01:21;14.60;99.90
69418;DHT22;56610;48.872;2.400;2023-03-31T05:03:47;14.40;99.90
69418;DHT22;56610;48.872;2.400;2023-03-31T05:06:13;14.50;99.90
69418;DHT22;56610;48.872;2.400;2023-03-31T05:08:59;14.40;99.90
69418;DHT22;56610;48.872;2.400;2023-03-31T05:11:25;14.40;99.90
69418;DHT22;56610;48.872;2.400;2023-03-31T05:13:51;14.40;99.90
69418;DHT22;56610;48.872;2.400;2023-03-31T05:16:17;14.30;99.90
69418;DHT22;56610;48.872;2.400;2023-03-31T05:18:43;14.30;99.90
69418;DHT22;56610;48.872;2.400;2023-03-31T05:21:18;14.20;99.90
69418;DHT22;56610;48.872;2.400;2023-03-31T05:23:44;14.30;99.90
69418;DHT22;56610;48.872;2.400;2023-03-31T05:26:10;14.50;99.90
69418;DHT22;56610;48.872;2.400;2023-03-31T05:28:36;14.50;99.90
69418;DHT22;56610;48.872;2.400;2023-03-31T05:31:03;14.60;99.90
69418;DHT22;56610;48.872;2.400;2023-03-31T05:33:30;14.60;99.90
69418;DHT22;56610;48.872;2.400;2023-03-31T05:35:57;14.60;99.90
69418;DHT22;56610;48.872;2.400;2023-03-31T05:38:25;14.70;99.90
69418;DHT22;56610;48.872;2.400;2023-03-31T05:40:54;14.40;99.90
69418;DHT22;56610;48.872;2.400;2023-03-31T05:43:20;14.40;99.90
69418;DHT22;56610;48.872;2.400;2023-03-31T05:45:46;14.30;99.90
69418;DHT22;56610;48.872;2.400;2023-03-31T05:48:11;14.30;99.90
69418;DHT22;56610;48.872;2.400;2023-03-31T05:50:37;14.40;99.90
69418;DHT22;56610;48.872;2.400;2023-03-31T05:53:03;14.50;99.90
69418;DHT22;56610;48.872;2.400;2023-03-31T05:55:28;14.40;99.90
69418;DHT22;56610;48.872;2.400;2023-03-31T05:57:54;14.40;99.90
69418;DHT22;56610;48.872;2.400;2023-03-31T06:00:20;14.50;99.90
69418;DHT22;56610;48.872;2.400;2023-03-31T06:02:45;14.40;99.90
69418;DHT22;56610;48.872;2.400;2023-03-31T06:05:11;14.50;99.90
69418;DHT22;56610;48.872;2.400;2023-03-31T06:07:37;14.50;99.90
69418;DHT22;56610;48.872;2.400;2023-03-31T06:10:02;14.40;99.90
69418;DHT22;56610;48.872;2.400;2023-03-31T06:12:28;14.20;99.90
69418;DHT22;56610;48.872;2.400;2023-03-31T06:14:54;14.20;99.90
69418;DHT22;56610;48.872;2.400;2023-03-31T06:17:19;14.30;99.90
69418;DHT22;56610;48.872;2.400;2023-03-31T06:19:45;14.20;99.90
69418;DHT22;56610;48.872;2.400;2023-03-31T06:22:11;14.30;99.90
69418;DHT22;56610;48.872;2.400;2023-03-31T06:24:36;14.20;99.90
69418;DHT22;56610;48.872;2.400;2023-03-31T06:27:02;14.30;99.90
69418;DHT22;56610;48.872;2.400;2023-03-31T06:29:28;14.40;99.90
69418;DHT22;56610;48.872;2.400;2023-03-31T06:31:54;14.50;99.90
69418;DHT22;56610;48.872;2.400;2023-03-31T06:34:20;14.60;99.90
69418;DHT22;56610;48.872;2.400;2023-03-31T06:36:45;14.60;99.90
69418;DHT22;56610;48.872;2.400;2023-03-31T06:39:11;14.60;99.90
69418;DHT22;56610;48.872;2.400;2023-03-31T06:41:36;14.60;99.90
69418;DHT22;56610;48.872;2.400;2023-03-31T06:44:03;14.50;99.90
69418;DHT22;56610;48.872;2.400;2023-03-31T06:46:29;14.40;99.90
69418;DHT22;56610;48.872;2.400;2023-03-31T06:48:54;14.30;99.90
69418;DHT22;56610;48.872;2.400;2023-03-31T06:51:20;14.20;99.90
69418;DHT22;56610;48.872;2.400;2023-03-31T06:53:46;14.10;99.90
69418;DHT22;56610;48.872;2.400;2023-03-31T06:56:11;14.00;99.90
69418;DHT22;56610;48.872;2.400;2023-03-31T06:58:37;14.20;99.90
69418;DHT22;56610;48.872;2.400;2023-03-31T07:01:04;14.10;99.90
69418;DHT22;56610;48.872;2.400;2023-03-31T07:03:30;14.20;99.90
69418;DHT22;56610;48.872;2.400;2023-03-31T07:05:57;14.30;99.90
69418;DHT22;56610;48.872;2.400;2023-03-31T07:08:23;14.30;99.90
69418;DHT22;56610;48.872;2.400;2023-03-31T07:10:54;14.40;99.90
69418;DHT22;56610;48.872;2.400;2023-03-31T07:13:20;14.50;99.90
69418;DHT22;56610;48.872;2.400;2023-03-31T07:15:49;14.40;99.90
69418;DHT22;56610;48.872;2.400;2023-03-31T07:18:16;14.40;99.90
69418;DHT22;56610;48.872;2.400;2023-03-31T07:20:42;14.40;99.90
69418;DHT22;56610;48.872;2.400;2023-03-31T07:23:08;14.40;99.90
69418;DHT22;56610;48.872;2.400;2023-03-31T07:25:34;14.40;99.90
69418;DHT22;56610;48.872;2.400;2023-03-31T07:28:00;14.50;99.90
69418;DHT22;56610;48.872;2.400;2023-03-31T07:30:27;14.40;99.90
69418;DHT22;56610;48.872;2.400;2023-03-31T07:32:52;14.40;99.90
69418;DHT22;56610;48.872;2.400;2023-03-31T07:35:19;14.40;99.90
69418;DHT22;56610;48.872;2.400;2023-03-31T07:37:46;14.30;99.90
69418;DHT22;56610;48.872;2.400;2023-03-31T07:40:16;14.40;99.90
69418;DHT22;56610;48.872;2.400;2023-03-31T07:42:42;14.30;99.90
69418;DHT22;56610;48.872;2.400;2023-03-31T07:45:09;14.30;99.90
69418;DHT22;56610;48.872;2.400;2023-03-31T07:47:35;14.30;99.90
69418;DHT22;56610;48.872;2.400;2023-03-31T07:50:02;14.30;99.90
69418;DHT22;56610;48.872;2.400;2023-03-31T07:52:27;14.50;99.90
69418;DHT22;56610;48.872;2.400;2023-03-31T07:54:53;14.60;99.90
69418;DHT22;56610;48.872;2.400;2023-03-31T07:57:18;14.70;99.90
69418;DHT22;56610;48.872;2.400;2023-03-31T07:59:45;14.60;99.90
69418;DHT22;56610;48.872;2.400;2023-03-31T08:02:16;14.60;99.90
69418;DHT22;56610;48.872;2.400;2023-03-31T08:04:42;14.50;99.90
69418;DHT22;56610;48.872;2.400;2023-03-31T08:07:10;14.40;99.90
69418;DHT22;56610;48.872;2.400;2023-03-31T08:09:36;14.40;99.90
69418;DHT22;56610;48.872;2.400;2023-03-31T08:12:02;14.40;99.90
69418;DHT22;56610;48.872;2.400;2023-03-31T08:14:28;14.40;99.90
69418;DHT22;56610;48.872;2.400;2023-03-31T08:16:53;14.40;99.90
69418;DHT22;56610;48.872;2.400;2023-03-31T08:19:20;14.40;99.90
69418;DHT22;56610;48.872;2.400;2023-03-31T08:21:46;14.50;99.90
69418;DHT22;56610;48.872;2.400;2023-03-31T08:24:12;14.60;99.90
69418;DHT22;56610;48.872;2.400;2023-03-31T08:26:37;14.80;99.90
69418;DHT22;56610;48.872;2.400;2023-03-31T08:29:05;14.90;99.90
69418;DHT22;56610;48.872;2.400;2023-03-31T08:31:30;14.80;99.90
69418;DHT22;56610;48.872;2.400;2023-03-31T08:33:56;14.90;99.90
69418;DHT22;56610;48.872;2.400;2023-03-31T08:36:22;14.80;99.90
69418;DHT22;56610;48.872;2.400;2023-03-31T08:38:47;14.80;99.90
69418;DHT22;56610;48.872;2.400;2023-03-31T08:41:37;14.70;99.90
69418;DHT22;56610;48.872;2.400;2023-03-31T08:46:56;14.60;99.90
69418;DHT22;56610;48.872;2.400;2023-03-31T08:49:24;14.60;99.90
69418;DHT22;56610;48.872;2.400;2023-03-31T08:51:51;14.60;99.90
69418;DHT22;56610;48.872;2.400;2023-03-31T08:54:39;14.70;99.90
69418;DHT22;56610;48.872;2.400;2023-03-31T08:57:14;14.70;99.90
69418;DHT22;56610;48.872;2.400;2023-03-31T08:59:40;14.80;99.90
69418;DHT22;56610;48.872;2.400;2023-03-31T09:04:59;14.90;99.90
69418;DHT22;56610;48.872;2.400;2023-03-31T09:07:49;15.10;99.90
69418;DHT22;56610;48.872;2.400;2023-03-31T09:10:27;15.20;99.90
69418;DHT22;56610;48.872;2.400;2023-03-31T09:18:16;15.20;99.90
69418;DHT22;56610;48.872;2.400;2023-03-31T09:20:47;15.10;99.90
69418;DHT22;56610;48.872;2.400;2023-03-31T09:23:24;15.10;99.90
69418;DHT22;56610;48.872;2.400;2023-03-31T09:25:51;15.10;99.90
69418;DHT22;56610;48.872;2.400;2023-03-31T09:28:30;15.10;99.90
69418;DHT22;56610;48.872;2.400;2023-03-31T09:30:59;15.10;99.90
69418;DHT22;56610;48.872;2.400;2023-03-31T09:33:30;15.20;99.90
69418;DHT22;56610;48.872;2.400;2023-03-31T09:35:58;15.40;99.90
69418;DHT22;56610;48.872;2.400;2023-03-31T09:38:24;15.40;99.90
69418;DHT22;56610;48.872;2.400;2023-03-31T09:40:55;15.20;99.90
69418;DHT22;56610;48.872;2.400;2023-03-31T09:43:26;15.00;99.90
69418;DHT22;56610;48.872;2.400;2023-03-31T09:45:53;14.90;99.90
69418;DHT22;56610;48.872;2.400;2023-03-31T09:48:27;14.90;99.90
69418;DHT22;56610;48.872;2.400;2023-03-31T09:51:15;14.90;99.90
69418;DHT22;56610;48.872;2.400;2023-03-31T09:53:48;15.00;99.90
69418;DHT22;56610;48.872;2.400;2023-03-31T09:56:43;15.00;99.90
69418;DHT22;56610;48.872;2.400;2023-03-31T09:59:16;15.10;99.90
69418;DHT22;56610;48.872;2.400;2023-03-31T10:01:44;15.20;99.90
69418;DHT22;56610;48.872;2.400;2023-03-31T10:06:46;15.40;99.90
69418;DHT22;56610;48.872;2.400;2023-03-31T10:09:12;15.50;99.90
69418;DHT22;56610;48.872;2.400;2023-03-31T10:11:38;15.50;99.90
69418;DHT22;56610;48.872;2.400;2023-03-31T10:14:10;15.40;99.90
69418;DHT22;56610;48.872;2.400;2023-03-31T10:16:48;15.40;99.90
69418;DHT22;56610;48.872;2.400;2023-03-31T10:19:25;15.50;99.90
69418;DHT22;56610;48.872;2.400;2023-03-31T10:21:58;15.30;99.90
69418;DHT22;56610;48.872;2.400;2023-03-31T10:24:24;15.30;99.90
69418;DHT22;56610;48.872;2.400;2023-03-31T10:26:54;15.40;99.90
69418;DHT22;56610;48.872;2.400;2023-03-31T10:29:30;15.40;99.90
69418;DHT22;56610;48.872;2.400;2023-03-31T10:32:33;15.50;99.90
69418;DHT22;56610;48.872;2.400;2023-03-31T10:35:22;15.60;99.90
69418;DHT22;56610;48.872;2.400;2023-03-31T10:37:50;15.70;99.90
69418;DHT22;56610;48.872;2.400;2023-03-31T10:40:21;15.70;99.90
69418;DHT22;56610;48.872;2.400;2023-03-31T10:43:16;15.70;99.90
69418;DHT22;56610;48.872;2.400;2023-03-31T10:45:47;15.60;99.90
69418;DHT22;56610;48.872;2.400;2023-03-31T10:48:25;15.60;99.90
69418;DHT22;56610;48.872;2.400;2023-03-31T10:50:51;15.60;99.90
69418;DHT22;56610;48.872;2.400;2023-03-31T10:53:17;15.70;99.90
69418;DHT22;56610;48.872;2.400;2023-03-31T10:58:30;15.90;99.90
69418;DHT22;56610;48.872;2.400;2023-03-31T11:03:40;16.00;99.90
69418;DHT22;56610;48.872;2.400;2023-03-31T11:12:10;16.30;99.90
69418;DHT22;56610;48.872;2.400;2023-03-31T11:15:00;16.20;99.90
69418;DHT22;56610;48.872;2.400;2023-03-31T11:20:29;16.20;99.90
69418;DHT22;56610;48.872;2.400;2023-03-31T11:25:37;16.00;99.90
69418;DHT22;56610;48.872;2.400;2023-03-31T11:31:07;16.00;99.90
69418;DHT22;56610;48.872;2.400;2023-03-31T11:33:49;16.00;99.90
69418;DHT22;56610;48.872;2.400;2023-03-31T11:42:13;16.40;99.90
69418;DHT22;56610;48.872;2.400;2023-03-31T11:44:44;16.30;99.90
69418;DHT22;56610;48.872;2.400;2023-03-31T11:47:15;16.40;99.90
69418;DHT22;56610;48.872;2.400;2023-03-31T11:49:59;16.50;99.90
69418;DHT22;56610;48.872;2.400;2023-03-31T11:52:37;16.40;99.90
69418;DHT22;56610;48.872;2.400;2023-03-31T11:58:03;16.30;99.90
69418;DHT22;56610;48.872;2.400;2023-03-31T12:00:41;16.30;99.90
69418;DHT22;56610;48.872;2.400;2023-03-31T12:03:15;16.50;99.90
69418;DHT22;56610;48.872;2.400;2023-03-31T12:05:50;16.60;99.90
69418;DHT22;56610;48.872;2.400;2023-03-31T12:08:28;16.80;99.90
69418;DHT22;56610;48.872;2.400;2023-03-31T12:11:03;16.90;99.90
69418;DHT22;56610;48.872;2.400;2023-03-31T12:13:48;17.00;99.90
69418;DHT22;56610;48.872;2.400;2023-03-31T12:16:22;16.90;99.90
69418;DHT22;56610;48.872;2.400;2023-03-31T12:19:16;17.00;99.90
69418;DHT22;56610;48.872;2.400;2023-03-31T12:22:15;17.00;99.90
69418;DHT22;56610;48.872;2.400;2023-03-31T12:24:41;16.90;99.90
69418;DHT22;56610;48.872;2.400;2023-03-31T12:29:42;17.00;99.90
69418;DHT22;56610;48.872;2.400;2023-03-31T12:32:21;17.20;99.90
69418;DHT22;56610;48.872;2.400;2023-03-31T12:37:57;17.30;99.90
69418;DHT22;56610;48.872;2.400;2023-03-31T12:40:33;17.40;99.90
69418;DHT22;56610;48.872;2.400;2023-03-31T12:51:32;17.50;99.90
69418;DHT22;56610;48.872;2.400;2023-03-31T12:59:42;17.80;99.90
69418;DHT22;56610;48.872;2.400;2023-03-31T13:04:34;17.90;99.90
69418;DHT22;56610;48.872;2.400;2023-03-31T13:07:03;17.90;99.90
69418;DHT22;56610;48.872;2.400;2023-03-31T13:12:15;17.90;99.90
69418;DHT22;56610;48.872;2.400;2023-03-31T13:14:44;17.80;99.90
69418;DHT22;56610;48.872;2.400;2023-03-31T13:19:39;17.70;99.90
69418;DHT22;56610;48.872;2.400;2023-03-31T13:22:05;17.70;99.90
69418;DHT22;56610;48.872;2.400;2023-03-31T13:24:32;17.70;99.90
69418;DHT22;56610;48.872;2.400;2023-03-31T13:27:51;17.60;99.90
69418;DHT22;56610;48.872;2.400;2023-03-31T13:33:13;17.60;99.90
69418;DHT22;56610;48.872;2.400;2023-03-31T13:35:44;17.50;99.90
69418;DHT22;56610;48.872;2.400;2023-03-31T13:44:42;17.10;99.90
69418;DHT22;56610;48.872;2.400;2023-03-31T13:58:26;17.20;99.90
69418;DHT22;56610;48.872;2.400;2023-03-31T14:06:57;16.70;99.90
69418;DHT22;56610;48.872;2.400;2023-03-31T14:09:35;16.30;99.90
69418;DHT22;56610;48.872;2.400;2023-03-31T14:14:46;15.50;99.90
69418;DHT22;56610;48.872;2.400;2023-03-31T14:17:13;15.30;99.90
69418;DHT22;56610;48.872;2.400;2023-03-31T14:33:39;16.30;99.90
69418;DHT22;56610;48.872;2.400;2023-03-31T14:38:45;16.60;99.90
69418;DHT22;56610;48.872;2.400;2023-03-31T14:41:18;16.70;99.90
69418;DHT22;56610;48.872;2.400;2023-03-31T14:43:48;16.80;99.90
69418;DHT22;56610;48.872;2.400;2023-03-31T14:46:19;16.80;99.90
69418;DHT22;56610;48.872;2.400;2023-03-31T14:48:47;16.80;99.90
69418;DHT22;56610;48.872;2.400;2023-03-31T14:51:22;16.80;99.90
69418;DHT22;56610;48.872;2.400;2023-03-31T14:53:58;16.80;99.90
69418;DHT22;56610;48.872;2.400;2023-03-31T14:56:36;16.70;99.90
69418;DHT22;56610;48.872;2.400;2023-03-31T14:59:04;16.60;99.90
69418;DHT22;56610;48.872;2.400;2023-03-31T15:01:33;16.50;99.90
69418;DHT22;56610;48.872;2.400;2023-03-31T15:04:13;16.60;99.90
69418;DHT22;56610;48.872;2.400;2023-03-31T15:06:40;16.60;99.90
69418;DHT22;56610;48.872;2.400;2023-03-31T15:09:08;16.50;99.90
69418;DHT22;56610;48.872;2.400;2023-03-31T15:11:38;16.40;99.90
69418;DHT22;56610;48.872;2.400;2023-03-31T15:14:03;16.40;99.90
69418;DHT22;56610;48.872;2.400;2023-03-31T15:16:36;16.40;99.90
69418;DHT22;56610;48.872;2.400;2023-03-31T15:19:23;16.50;99.90
69418;DHT22;56610;48.872;2.400;2023-03-31T15:22:17;16.50;99.90
69418;DHT22;56610;48.872;2.400;2023-03-31T15:24:43;16.70;99.90
69418;DHT22;56610;48.872;2.400;2023-03-31T15:29:51;16.90;99.90
69418;DHT22;56610;48.872;2.400;2023-03-31T15:32:26;16.90;99.90
69418;DHT22;56610;48.872;2.400;2023-03-31T15:34:52;17.10;99.90
69418;DHT22;56610;48.872;2.400;2023-03-31T15:37:26;17.10;99.90
69418;DHT22;56610;48.872;2.400;2023-03-31T15:39:56;17.10;99.90
69418;DHT22;56610;48.872;2.400;2023-03-31T15:42:23;17.10;99.90
69418;DHT22;56610;48.872;2.400;2023-03-31T15:47:33;17.10;99.90
69418;DHT22;56610;48.872;2.400;2023-03-31T15:50:10;17.10;99.90
69418;DHT22;56610;48.872;2.400;2023-03-31T15:52:38;17.10;99.90
69418;DHT22;56610;48.872;2.400;2023-03-31T15:57:51;17.00;99.90
69418;DHT22;56610;48.872;2.400;2023-03-31T16:00:52;16.80;99.90
69418;DHT22;56610;48.872;2.400;2023-03-31T16:03:32;16.60;99.90
69418;DHT22;56610;48.872;2.400;2023-03-31T16:06:15;16.50;99.90
69418;DHT22;56610;48.872;2.400;2023-03-31T16:08:47;16.40;99.90
69418;DHT22;56610;48.872;2.400;2023-03-31T16:11:22;16.30;99.90
69418;DHT22;56610;48.872;2.400;2023-03-31T16:13:53;16.10;99.90
69418;DHT22;56610;48.872;2.400;2023-03-31T16:16:22;16.40;99.90
69418;DHT22;56610;48.872;2.400;2023-03-31T16:18:50;16.40;99.90
69418;DHT22;56610;48.872;2.400;2023-03-31T16:21:21;16.40;99.90
69418;DHT22;56610;48.872;2.400;2023-03-31T16:23:51;16.40;99.90
69418;DHT22;56610;48.872;2.400;2023-03-31T16:26:26;16.30;99.90
69418;DHT22;56610;48.872;2.400;2023-03-31T16:28:54;16.20;99.90
69418;DHT22;56610;48.872;2.400;2023-03-31T16:31:36;16.10;99.90
69418;DHT22;56610;48.872;2.400;2023-03-31T16:34:04;16.00;99.90
69418;DHT22;56610;48.872;2.400;2023-03-31T16:36:31;16.00;99.90
69418;DHT22;56610;48.872;2.400;2023-03-31T16:38:56;15.90;99.90
69418;DHT22;56610;48.872;2.400;2023-03-31T16:41:23;16.00;99.90
69418;DHT22;56610;48.872;2.400;2023-03-31T16:43:49;16.10;99.90
69418;DHT22;56610;48.872;2.400;2023-03-31T16:46:19;16.20;99.90
69418;DHT22;56610;48.872;2.400;2023-03-31T16:48:45;16.10;99.90
69418;DHT22;56610;48.872;2.400;2023-03-31T16:51:12;16.00;99.90
69418;DHT22;56610;48.872;2.400;2023-03-31T16:53:37;16.10;99.90
69418;DHT22;56610;48.872;2.400;2023-03-31T16:56:05;15.80;99.90
69418;DHT22;56610;48.872;2.400;2023-03-31T16:58:34;15.80;99.90
69418;DHT22;56610;48.872;2.400;2023-03-31T17:01:00;15.80;99.90
69418;DHT22;56610;48.872;2.400;2023-03-31T17:03:26;15.70;99.90
69418;DHT22;56610;48.872;2.400;2023-03-31T17:05:54;15.70;99.90
69418;DHT22;56610;48.872;2.400;2023-03-31T17:08:23;15.80;99.90
69418;DHT22;56610;48.872;2.400;2023-03-31T17:11:10;15.80;99.90
69418;DHT22;56610;48.872;2.400;2023-03-31T17:13:37;15.70;99.90
69418;DHT22;56610;48.872;2.400;2023-03-31T17:16:04;15.70;99.90
69418;DHT22;56610;48.872;2.400;2023-03-31T17:18:29;15.70;99.90
69418;DHT22;56610;48.872;2.400;2023-03-31T17:21:02;15.60;99.90
69418;DHT22;56610;48.872;2.400;2023-03-31T17:23:28;15.70;99.90
69418;DHT22;56610;48.872;2.400;2023-03-31T17:25:54;15.70;99.90
69418;DHT22;56610;48.872;2.400;2023-03-31T17:28:20;15.70;99.90
69418;DHT22;56610;48.872;2.400;2023-03-31T17:30:45;15.80;99.90
69418;DHT22;56610;48.872;2.400;2023-03-31T17:33:13;15.80;99.90
69418;DHT22;56610;48.872;2.400;2023-03-31T17:35:40;15.70;99.90
69418;DHT22;56610;48.872;2.400;2023-03-31T17:38:06;15.70;99.90
69418;DHT22;56610;48.872;2.400;2023-03-31T17:40:33;15.70;99.90
69418;DHT22;56610;48.872;2.400;2023-03-31T17:43:00;15.60;99.90
69418;DHT22;56610;48.872;2.400;2023-03-31T17:45:27;15.60;99.90
69418;DHT22;56610;48.872;2.400;2023-03-31T17:47:54;15.60;99.90
69418;DHT22;56610;48.872;2.400;2023-03-31T17:50:20;15.50;99.90
69418;DHT22;56610;48.872;2.400;2023-03-31T17:52:46;15.60;99.90
69418;DHT22;56610;48.872;2.400;2023-03-31T17:55:31;15.50;99.90
69418;DHT22;56610;48.872;2.400;2023-03-31T17:57:59;15.50;99.90
69418;DHT22;56610;48.872;2.400;2023-03-31T18:00:25;15.60;99.90
69418;DHT22;56610;48.872;2.400;2023-03-31T18:02:51;15.60;99.90
69418;DHT22;56610;48.872;2.400;2023-03-31T18:05:19;15.70;99.90
69418;DHT22;56610;48.872;2.400;2023-03-31T18:07:44;15.60;99.90
69418;DHT22;56610;48.872;2.400;2023-03-31T18:10:10;15.60;99.90
69418;DHT22;56610;48.872;2.400;2023-03-31T18:12:36;15.60;99.90
69418;DHT22;56610;48.872;2.400;2023-03-31T18:15:03;15.60;99.90
69418;DHT22;56610;48.872;2.400;2023-03-31T18:17:30;15.60;99.90
69418;DHT22;56610;48.872;2.400;2023-03-31T18:19:55;15.60;99.90
69418;DHT22;56610;48.872;2.400;2023-03-31T18:22:21;15.70;99.90
69418;DHT22;56610;48.872;2.400;2023-03-31T18:24:47;15.70;99.90
69418;DHT22;56610;48.872;2.400;2023-03-31T18:27:13;15.70;99.90
69418;DHT22;56610;48.872;2.400;2023-03-31T18:29:38;15.70;99.90
69418;DHT22;56610;48.872;2.400;2023-03-31T18:32:04;15.70;99.90
69418;DHT22;56610;48.872;2.400;2023-03-31T18:34:29;15.70;99.90
69418;DHT22;56610;48.872;2.400;2023-03-31T18:36:55;15.70;99.90
69418;DHT22;56610;48.872;2.400;2023-03-31T18:39:21;15.60;99.90
69418;DHT22;56610;48.872;2.400;2023-03-31T18:41:47;15.40;99.90
69418;DHT22;56610;48.872;2.400;2023-03-31T18:44:13;15.20;99.90
69418;DHT22;56610;48.872;2.400;2023-03-31T18:46:43;15.30;99.90